Portada
METAR-TAF:

METAR-TAF

Aeroports :

Russellville Regional Airport

Russellville, Arkansas, Estats Units d'Amèrica

latitud: 35-15-32N, longitud: 093-05-36W, altitud: 123 m

Observació

L'informe es va fer fa 23 minuts, a les 10:53 UTC
Vent calma
Temperatura 11°C
Humitat 82%
Pressió 1022 hPa
Visibilitat: 16.1 km
Cel clar

METAR: KRUE 301053Z AUTO 00000KT 10SM CLR 11/08 A3019 RMK AO2 SLP217 T01110083

Hora: 06:16 (11:16 UTC)


TAF: manca

Observacions i pronòstics meteorològics de més de 4000 aeroports (METAR i TAF).

Les estacions disponibles són els punts grocs i vermells al mapa.

Posi el ratolí al punt desitjat per veure el nom de l'estació.

Feu clic per veure les observacions i els pronòstics meteorològics.

Per canviar el mapa: feu clic els botons verds amb una creu de color negre per apropar; al botó verd amb un guió per allunyar la imatge; o en les fletxes verdes per a mapes adjacents.


METAR-TAF: